createdAt,value
2017-11-07T00:02:27.304Z,90.90
2017-11-07T00:05:32.589Z,90.60
2017-11-07T00:08:37.324Z,90.60
2017-11-07T00:11:42.932Z,90.60
2017-11-07T00:14:47.880Z,90.60
2017-11-07T00:17:53.247Z,90.50
2017-11-07T00:20:58.589Z,90.50
2017-11-07T00:24:03.503Z,90.20
2017-11-07T00:27:09.132Z,90.10
2017-11-07T00:30:14.571Z,89.90
2017-11-07T00:33:19.991Z,89.80
2017-11-07T00:36:24.869Z,89.60
2017-11-07T00:39:30.535Z,89.70
2017-11-07T00:42:37.094Z,89.50
2017-11-07T00:45:43.180Z,89.50
2017-11-07T00:48:48.072Z,89.30
2017-11-07T00:51:53.033Z,89.70
2017-11-07T00:55:00.294Z,89.90
2017-11-07T00:58:05.980Z,89.90
2017-11-07T01:01:11.656Z,90.00
2017-11-07T01:04:17.364Z,89.80
2017-11-07T01:07:23.290Z,89.80
2017-11-07T01:10:28.734Z,89.80
2017-11-07T01:13:34.244Z,89.90
2017-11-07T01:16:39.859Z,89.80
2017-11-07T01:19:45.297Z,89.50
2017-11-07T01:22:50.887Z,89.20
2017-11-07T01:25:57.076Z,89.00
2017-11-07T01:29:03.619Z,89.10
2017-11-07T01:32:08.956Z,89.10
2017-11-07T01:35:14.005Z,89.40
2017-11-07T01:38:19.140Z,89.40
2017-11-07T01:41:24.938Z,89.60
2017-11-07T01:44:30.576Z,90.00
2017-11-07T01:47:35.648Z,90.00
2017-11-07T01:50:41.512Z,90.00
2017-11-07T01:53:47.300Z,90.00
2017-11-07T01:56:53.743Z,89.80
2017-11-07T01:59:58.757Z,89.80
2017-11-07T02:03:04.488Z,90.00
2017-11-07T02:06:09.940Z,90.00
2017-11-07T02:09:14.624Z,90.10
2017-11-07T02:12:20.292Z,90.30
2017-11-07T02:15:26.129Z,90.10
2017-11-07T02:18:31.325Z,90.00
2017-11-07T02:21:37.092Z,89.70
2017-11-07T02:24:42.135Z,89.70
2017-11-07T02:27:48.040Z,89.30
2017-11-07T02:30:53.472Z,89.10
2017-11-07T02:33:59.144Z,88.90
2017-11-07T02:37:04.528Z,88.80
2017-11-07T02:40:09.667Z,89.00
2017-11-07T02:43:14.742Z,89.00
2017-11-07T02:46:19.668Z,88.80
2017-11-07T02:49:25.257Z,88.70
2017-11-07T02:52:30.817Z,88.80
2017-11-07T02:55:35.893Z,88.60
2017-11-07T02:58:41.443Z,88.70
2017-11-07T03:01:46.473Z,88.60
2017-11-07T03:04:51.854Z,88.30
2017-11-07T03:07:57.180Z,88.40
2017-11-07T03:11:02.564Z,88.00
2017-11-07T03:14:07.831Z,88.20
2017-11-07T03:17:13.168Z,88.50
2017-11-07T03:20:18.354Z,88.40
2017-11-07T03:23:24.129Z,88.40
2017-11-07T03:26:29.516Z,88.80
2017-11-07T03:29:34.824Z,88.40
2017-11-07T03:32:40.247Z,87.90
2017-11-07T03:35:45.660Z,88.30
2017-11-07T03:38:52.133Z,88.40
2017-11-07T03:41:57.760Z,88.00
2017-11-07T03:45:02.981Z,88.20
2017-11-07T03:48:08.409Z,88.40
2017-11-07T03:51:13.859Z,88.50
2017-11-07T03:54:19.450Z,88.60
2017-11-07T03:57:25.241Z,88.60
2017-11-07T04:00:30.605Z,88.40
2017-11-07T04:03:36.083Z,88.40
2017-11-07T04:06:41.308Z,88.30
2017-11-07T04:09:46.478Z,88.10
2017-11-07T04:12:51.831Z,88.30
2017-11-07T04:15:57.260Z,88.60
2017-11-07T04:19:02.361Z,88.50
2017-11-07T04:22:07.905Z,88.60
2017-11-07T04:25:13.667Z,88.50
2017-11-07T04:28:19.824Z,88.10
2017-11-07T04:31:25.863Z,88.50
2017-11-07T04:34:32.465Z,88.40
2017-11-07T04:37:39.110Z,88.40
2017-11-07T04:40:44.971Z,88.20
2017-11-07T04:43:50.040Z,88.30
2017-11-07T04:46:55.012Z,88.10
2017-11-07T04:49:59.930Z,88.30
2017-11-07T04:53:05.651Z,88.40
2017-11-07T04:56:10.835Z,89.00
2017-11-07T04:59:17.186Z,88.80
2017-11-07T05:02:23.028Z,89.00
2017-11-07T05:05:28.575Z,89.50
2017-11-07T05:08:33.890Z,89.40
2017-11-07T05:11:45.152Z,89.70
2017-11-07T05:14:51.544Z,89.50
2017-11-07T05:17:57.796Z,89.80
2017-11-07T05:21:04.165Z,89.70
2017-11-07T05:24:13.872Z,90.00
2017-11-07T05:27:19.033Z,90.10
2017-11-07T05:30:23.956Z,90.00
2017-11-07T05:33:32.209Z,90.20
2017-11-07T05:36:39.630Z,90.30
2017-11-07T05:39:46.203Z,90.60
2017-11-07T05:42:51.652Z,90.20
2017-11-07T05:45:56.595Z,90.30
2017-11-07T05:49:02.301Z,90.30
2017-11-07T05:52:09.576Z,90.10
2017-11-07T05:55:14.716Z,89.70
2017-11-07T05:58:22.700Z,90.00
2017-11-07T06:01:27.689Z,90.00
2017-11-07T06:04:34.106Z,90.00
2017-11-07T06:07:42.411Z,90.20
2017-11-07T06:10:47.703Z,89.70
2017-11-07T06:13:53.220Z,90.00
2017-11-07T06:16:59.781Z,90.00
2017-11-07T06:20:06.946Z,90.00
2017-11-07T06:23:11.836Z,89.50
2017-11-07T06:26:17.860Z,89.40
2017-11-07T06:29:23.032Z,89.30
2017-11-07T06:32:27.956Z,89.30
2017-11-07T06:35:33.652Z,89.40
2017-11-07T06:38:40.149Z,89.50
2017-11-07T06:41:44.964Z,89.60
2017-11-07T06:44:50.235Z,89.50
2017-11-07T06:47:55.599Z,89.60
2017-11-07T06:51:00.679Z,89.00
2017-11-07T06:54:05.968Z,89.40
2017-11-07T06:57:10.928Z,88.70
2017-11-07T07:00:16.572Z,89.00
2017-11-07T07:03:21.995Z,88.60
2017-11-07T07:06:27.243Z,87.80
2017-11-07T07:09:34.012Z,89.00
2017-11-07T07:12:39.418Z,88.90
2017-11-07T07:15:45.004Z,89.00
2017-11-07T07:18:50.584Z,88.90
2017-11-07T07:21:56.236Z,88.60
2017-11-07T07:25:01.795Z,88.60
2017-11-07T07:28:07.359Z,89.40
2017-11-07T07:31:12.496Z,88.60
2017-11-07T07:34:18.192Z,88.30
2017-11-07T07:37:23.159Z,88.10
2017-11-07T07:40:28.988Z,87.70
2017-11-07T07:43:34.369Z,87.70
2017-11-07T07:46:40.385Z,88.10
2017-11-07T07:49:45.879Z,87.40
2017-11-07T07:52:51.451Z,86.90
2017-11-07T07:55:56.729Z,87.30
2017-11-07T07:59:02.409Z,85.80
2017-11-07T08:02:07.665Z,85.80
2017-11-07T08:05:13.676Z,86.20
2017-11-07T08:08:19.135Z,86.10
2017-11-07T08:11:24.935Z,86.10
2017-11-07T08:14:30.452Z,86.40
2017-11-07T08:17:35.215Z,86.30
2017-11-07T08:20:40.495Z,85.80
2017-11-07T08:23:45.932Z,86.20
2017-11-07T08:26:51.044Z,86.80
2017-11-07T08:29:56.308Z,87.00
2017-11-07T08:33:01.712Z,86.80
2017-11-07T08:36:07.852Z,87.30
2017-11-07T08:39:12.995Z,87.30
2017-11-07T08:42:17.864Z,87.30
2017-11-07T08:45:23.084Z,87.10
2017-11-07T08:48:28.199Z,87.20
2017-11-07T08:51:33.522Z,87.10
2017-11-07T08:54:38.779Z,86.90
2017-11-07T08:57:43.753Z,86.70
2017-11-07T09:00:49.377Z,87.40
2017-11-07T09:03:54.376Z,86.60
2017-11-07T09:06:59.204Z,86.10
2017-11-07T09:10:04.387Z,87.00
2017-11-07T09:13:10.632Z,86.90
2017-11-07T09:16:16.396Z,85.90
2017-11-07T09:19:21.144Z,86.00
2017-11-07T09:22:26.880Z,85.30
2017-11-07T09:25:32.181Z,86.20
2017-11-07T09:28:37.624Z,86.10
2017-11-07T09:31:42.916Z,85.30
2017-11-07T09:34:48.288Z,85.70
2017-11-07T09:37:54.389Z,85.50
2017-11-07T09:41:00.146Z,85.50
2017-11-07T09:44:05.608Z,85.30
2017-11-07T09:47:11.040Z,85.10
2017-11-07T09:50:16.827Z,85.20
2017-11-07T09:53:22.500Z,85.10
2017-11-07T09:56:27.338Z,84.30
2017-11-07T09:59:32.884Z,84.20
2017-11-07T10:02:37.711Z,85.80
2017-11-07T10:05:42.804Z,84.50
2017-11-07T10:08:47.867Z,84.80
2017-11-07T10:11:53.596Z,84.30
2017-11-07T10:15:00.017Z,85.00
2017-11-07T10:18:05.496Z,84.30
2017-11-07T10:21:10.848Z,84.30
2017-11-07T10:24:16.263Z,84.70
2017-11-07T10:27:21.196Z,84.20
2017-11-07T10:30:26.904Z,83.80
2017-11-07T10:33:31.805Z,84.30
2017-11-07T10:36:37.250Z,84.00
2017-11-07T10:39:42.072Z,85.30
2017-11-07T10:42:47.689Z,84.90
2017-11-07T10:45:52.713Z,85.70
2017-11-07T10:48:57.840Z,85.30
2017-11-07T10:52:02.864Z,84.40
2017-11-07T10:55:07.947Z,84.50
2017-11-07T10:58:13.481Z,85.30
2017-11-07T11:01:19.103Z,84.50
2017-11-07T11:04:25.260Z,84.00
2017-11-07T11:07:30.977Z,84.00
2017-11-07T11:10:36.111Z,84.20
2017-11-07T11:13:40.976Z,85.00
2017-11-07T11:16:46.552Z,83.30
2017-11-07T11:19:51.312Z,83.70
2017-11-07T11:22:57.132Z,83.50
2017-11-07T11:26:02.980Z,83.00
2017-11-07T11:29:08.700Z,83.00
2017-11-07T11:32:15.291Z,81.90
2017-11-07T11:35:20.322Z,81.90
2017-11-07T11:38:25.692Z,83.40
2017-11-07T11:41:30.824Z,81.60
2017-11-07T11:44:35.828Z,82.00
2017-11-07T11:47:40.595Z,82.00
2017-11-07T11:50:45.476Z,82.60
2017-11-07T11:53:50.747Z,81.20
2017-11-07T11:56:56.256Z,82.50
2017-11-07T12:00:02.061Z,81.80
2017-11-07T12:03:07.504Z,80.20
2017-11-07T12:06:12.687Z,81.10
2017-11-07T12:09:17.828Z,81.70
2017-11-07T12:12:24.487Z,83.50
2017-11-07T12:15:29.721Z,84.30
2017-11-07T12:18:34.653Z,82.30
2017-11-07T12:21:39.716Z,82.00
2017-11-07T12:24:44.843Z,80.80
2017-11-07T12:27:50.520Z,82.10
2017-11-07T12:30:55.905Z,81.00
2017-11-07T12:34:01.782Z,82.10
2017-11-07T12:37:07.345Z,82.10
2017-11-07T12:40:12.297Z,81.40
2017-11-07T12:43:17.336Z,82.50
2017-11-07T12:46:22.579Z,81.80
2017-11-07T12:49:28.744Z,82.00
2017-11-07T12:52:34.305Z,82.00
2017-11-07T12:55:39.625Z,81.90
2017-11-07T12:58:44.409Z,81.70
2017-11-07T13:01:51.124Z,82.80
2017-11-07T13:04:56.692Z,82.80
2017-11-07T13:08:01.580Z,82.80
2017-11-07T13:11:06.596Z,82.50
2017-11-07T13:14:11.559Z,81.70
2017-11-07T13:17:16.648Z,82.30
2017-11-07T13:20:22.380Z,83.00
2017-11-07T13:23:27.388Z,83.60
2017-11-07T13:26:32.315Z,81.90
2017-11-07T13:29:38.300Z,82.70
2017-11-07T13:32:43.755Z,82.70
2017-11-07T13:35:48.643Z,83.30
2017-11-07T13:38:53.931Z,83.30
2017-11-07T13:41:59.104Z,82.30
2017-11-07T13:45:04.208Z,83.30
2017-11-07T13:48:10.236Z,83.00
2017-11-07T13:51:15.632Z,83.00
2017-11-07T13:54:20.672Z,83.50
2017-11-07T13:57:25.997Z,83.70
2017-11-07T14:00:30.932Z,84.50
2017-11-07T14:03:36.815Z,83.70
2017-11-07T14:06:42.372Z,83.60
2017-11-07T14:09:48.012Z,83.90
2017-11-07T14:12:52.839Z,83.50
2017-11-07T14:15:58.044Z,83.90
2017-11-07T14:19:04.564Z,85.10
2017-11-07T14:22:10.173Z,85.10
2017-11-07T14:25:15.436Z,84.50
2017-11-07T14:28:21.222Z,85.50
2017-11-07T14:31:25.975Z,85.50
2017-11-07T14:34:31.264Z,85.50
2017-11-07T14:37:36.107Z,85.60
2017-11-07T14:40:41.748Z,85.70
2017-11-07T14:43:46.987Z,86.30
2017-11-07T14:46:51.976Z,86.40
2017-11-07T14:49:57.164Z,86.30
2017-11-07T14:53:02.520Z,87.20
2017-11-07T14:56:08.381Z,88.10
2017-11-07T14:59:13.488Z,87.50
2017-11-07T15:02:19.379Z,87.80
2017-11-07T15:05:25.004Z,87.80
2017-11-07T15:08:30.258Z,86.80
2017-11-07T15:11:35.009Z,87.60
2017-11-07T15:14:40.556Z,87.70
2017-11-07T15:17:45.220Z,87.50
2017-11-07T15:20:50.831Z,87.50
2017-11-07T15:23:55.596Z,87.10
2017-11-07T15:27:01.045Z,87.60
2017-11-07T15:30:06.117Z,87.50
2017-11-07T15:33:11.800Z,87.70
2017-11-07T15:36:17.517Z,87.70
2017-11-07T15:39:22.520Z,87.90
2017-11-07T15:42:28.064Z,87.50
2017-11-07T15:45:33.669Z,87.40
2017-11-07T15:48:39.236Z,87.20
2017-11-07T15:51:44.871Z,87.20
2017-11-07T15:54:49.788Z,87.30
2017-11-07T15:57:55.824Z,86.40
2017-11-07T16:01:02.505Z,87.20
2017-11-07T16:04:08.112Z,86.90
2017-11-07T16:07:13.381Z,87.10
2017-11-07T16:10:18.251Z,87.30
2017-11-07T16:13:23.200Z,87.40
2017-11-07T16:16:28.156Z,86.90
2017-11-07T16:19:33.476Z,86.90
2017-11-07T16:22:39.592Z,87.00
2017-11-07T16:25:45.117Z,87.00
2017-11-07T16:28:50.508Z,87.50
2017-11-07T16:31:55.590Z,87.60
2017-11-07T16:35:01.268Z,87.80
2017-11-07T16:38:07.011Z,88.00
2017-11-07T16:41:13.098Z,87.00
2017-11-07T16:44:18.339Z,87.00
2017-11-07T16:47:24.276Z,86.80
2017-11-07T16:50:29.494Z,86.70
2017-11-07T16:53:34.441Z,86.30
2017-11-07T16:56:40.995Z,86.80
2017-11-07T16:59:45.951Z,86.80
2017-11-07T17:02:52.020Z,86.40
2017-11-07T17:05:57.344Z,86.40
2017-11-07T17:09:02.392Z,86.70
2017-11-07T17:12:07.967Z,87.90
2017-11-07T17:15:13.588Z,88.70
2017-11-07T17:18:18.940Z,88.40
2017-11-07T17:21:23.935Z,88.80
2017-11-07T17:24:29.925Z,89.00
2017-11-07T17:27:35.041Z,89.00
2017-11-07T17:30:40.236Z,89.60
2017-11-07T17:33:45.732Z,89.90
2017-11-07T17:36:51.108Z,89.90
2017-11-07T17:39:57.104Z,90.20
2017-11-07T17:43:03.336Z,90.20
2017-11-07T17:46:09.155Z,90.10
2017-11-07T17:49:14.572Z,90.00
2017-11-07T17:52:19.557Z,89.70
2017-11-07T17:55:25.554Z,89.20
2017-11-07T17:58:31.312Z,89.20
2017-11-07T18:01:36.475Z,89.10
2017-11-07T18:04:41.470Z,89.10
2017-11-07T18:07:48.900Z,89.50
2017-11-07T18:10:54.849Z,89.10
2017-11-07T18:14:00.592Z,89.50
2017-11-07T18:17:06.132Z,90.00
2017-11-07T18:20:11.741Z,90.00
2017-11-07T18:23:16.637Z,90.00
2017-11-07T18:26:22.404Z,89.80
2017-11-07T18:29:28.040Z,90.00
2017-11-07T18:32:32.924Z,89.60
2017-11-07T18:35:39.029Z,90.10
2017-11-07T18:38:44.141Z,90.10
2017-11-07T18:41:49.433Z,89.90
2017-11-07T18:44:54.976Z,90.00
2017-11-07T18:48:00.739Z,89.70
2017-11-07T18:51:06.148Z,89.80
2017-11-07T18:54:11.452Z,89.70
2017-11-07T18:57:16.731Z,89.80
2017-11-07T19:00:22.645Z,89.70
2017-11-07T19:03:28.040Z,89.40
2017-11-07T19:06:33.352Z,89.00
2017-11-07T19:09:39.103Z,89.70
2017-11-07T19:12:44.908Z,89.90
2017-11-07T19:15:50.277Z,89.80
2017-11-07T19:18:55.031Z,90.10
2017-11-07T19:22:00.670Z,90.20
2017-11-07T19:25:06.540Z,90.30
2017-11-07T19:28:12.913Z,90.30
2017-11-07T19:31:18.776Z,90.40
2017-11-07T19:34:24.938Z,90.90
2017-11-07T19:37:30.600Z,91.00
2017-11-07T19:40:36.005Z,91.00
2017-11-07T19:43:41.880Z,90.80
2017-11-07T19:46:48.175Z,90.90
2017-11-07T19:49:53.470Z,90.90
2017-11-07T19:52:58.572Z,91.00
2017-11-07T19:56:05.512Z,90.80
2017-11-07T19:59:10.315Z,90.90
2017-11-07T20:02:15.782Z,91.10
2017-11-07T20:05:21.439Z,91.10
2017-11-07T20:08:26.419Z,91.30
2017-11-07T20:11:32.009Z,91.50
2017-11-07T20:14:37.628Z,91.50
2017-11-07T20:17:42.591Z,91.80
2017-11-07T20:20:47.964Z,91.90
2017-11-07T20:23:53.312Z,92.00
2017-11-07T20:26:58.571Z,92.30
2017-11-07T20:30:03.992Z,92.40
2017-11-07T20:33:09.276Z,92.30
2017-11-07T20:36:15.142Z,92.50
2017-11-07T20:39:20.572Z,92.50
2017-11-07T20:42:25.524Z,92.50
2017-11-07T20:45:30.976Z,92.50
2017-11-07T20:48:36.370Z,92.50
2017-11-07T20:51:41.356Z,92.50
2017-11-07T20:54:47.102Z,92.60
2017-11-07T20:57:52.092Z,92.50
2017-11-07T21:00:57.778Z,92.60
2017-11-07T21:04:03.228Z,92.60
2017-11-07T21:07:08.478Z,92.60
2017-11-07T21:10:13.795Z,92.70
2017-11-07T21:13:19.532Z,92.90
2017-11-07T21:16:25.000Z,92.90
2017-11-07T21:19:29.897Z,93.10
2017-11-07T21:22:35.652Z,93.10
2017-11-07T21:25:41.436Z,93.20
2017-11-07T21:28:46.209Z,93.30
2017-11-07T21:31:51.679Z,93.30
2017-11-07T21:34:57.376Z,93.30
2017-11-07T21:38:02.532Z,93.20
2017-11-07T21:41:07.921Z,93.30
2017-11-07T21:44:13.571Z,93.20
2017-11-07T21:47:18.588Z,93.20
2017-11-07T21:50:33.033Z,93.10
2017-11-07T21:53:38.016Z,93.10
2017-11-07T21:56:42.895Z,93.10
2017-11-07T21:59:47.704Z,93.30
2017-11-07T22:02:52.765Z,92.90
2017-11-07T22:05:59.245Z,92.80
2017-11-07T22:09:04.248Z,92.90
2017-11-07T22:12:10.069Z,93.00
2017-11-07T22:15:15.340Z,93.00
2017-11-07T22:18:20.076Z,93.10
2017-11-07T22:21:26.335Z,92.90
2017-11-07T22:24:31.712Z,92.80
2017-11-07T22:27:36.972Z,92.90
2017-11-07T22:30:42.135Z,92.90
2017-11-07T22:33:47.780Z,93.00
2017-11-07T22:36:53.508Z,92.90
2017-11-07T22:39:58.276Z,92.90
2017-11-07T22:43:03.812Z,92.90
2017-11-07T22:46:09.358Z,92.80
2017-11-07T22:49:14.313Z,92.80
2017-11-07T22:52:19.566Z,92.70
2017-11-07T22:55:25.766Z,92.60
2017-11-07T22:58:30.738Z,92.50
2017-11-07T23:01:35.520Z,92.40
2017-11-07T23:04:40.607Z,92.50
2017-11-07T23:07:46.740Z,92.60
2017-11-07T23:10:51.815Z,92.40
2017-11-07T23:13:58.061Z,92.50
2017-11-07T23:17:03.680Z,92.30
2017-11-07T23:20:10.112Z,92.40
2017-11-07T23:23:15.875Z,92.10
2017-11-07T23:26:21.540Z,92.10
2017-11-07T23:29:27.280Z,92.10
2017-11-07T23:32:32.944Z,92.00
2017-11-07T23:35:38.280Z,92.20
2017-11-07T23:38:43.640Z,92.10
2017-11-07T23:41:49.512Z,92.10
2017-11-07T23:44:55.101Z,92.30
2017-11-07T23:48:00.108Z,92.30
2017-11-07T23:51:09.344Z,92.40
2017-11-07T23:54:15.280Z,92.20
2017-11-07T23:57:20.324Z,92.20
